Time;durP1;ratioP1;P1;durP2;ratioP2;P2;SDS_P1;SDS_P2;PMS_P1;PMS_P2;Temp;Humidity;BMP_temperature;BMP_pressure;BME280_temperature;BME280_humidity;BME280_pressure;Samples;Min_cycle;Max_cycle;Signal;HPM_P1;HPM_P2
2023/06/22 00:00:49;;;;;;;7.43;4.97;;;;;;;;;;5012593;28;99699;-75
2023/06/22 00:03:16;;;;;;;8.85;5.15;;;;;;;;;;5024782;27;99540;-76
2023/06/22 00:05:43;;;;;;;7.85;4.40;;;;;;;;;;5032677;27;98520;-76
2023/06/22 00:08:10;;;;;;;9.18;5.25;;;;;;;;;;5033062;28;98491;-76
2023/06/22 00:10:36;;;;;;;6.95;5.05;;;;;;;;;;5032202;27;99638;-76
2023/06/22 00:13:02;;;;;;;9.93;4.82;;;;;;;;;;5032529;27;98611;-75
2023/06/22 00:15:29;;;;;;;13.18;5.60;;;;;;;;;;5031850;27;99255;-75
2023/06/22 00:17:57;;;;;;;8.52;5.07;;;;;;;;;;5032064;28;99643;-76
2023/06/22 00:20:27;;;;;;;9.30;5.63;;;;;;;;;;5035840;28;98568;-75
2023/06/22 00:22:54;;;;;;;10.30;5.13;;;;;;;;;;5032108;27;99528;-75
2023/06/22 00:25:21;;;;;;;8.25;5.20;;;;;;;;;;5032459;28;98529;-76
2023/06/22 00:27:48;;;;;;;10.68;5.43;;;;;;;;;;5031492;28;99541;-76
2023/06/22 00:30:17;;;;;;;8.82;5.90;;;;;;;;;;5031810;28;99715;-75
2023/06/22 00:32:44;;;;;;;7.93;6.40;;;;;;;;;;5032604;28;97915;-75
2023/06/22 00:35:14;;;;;;;7.55;5.15;;;;;;;;;;5032325;27;98754;-75
2023/06/22 00:37:43;;;;;;;9.90;5.88;;;;;;;;;;5031799;28;99576;-75
2023/06/22 00:40:14;;;;;;;7.30;5.93;;;;;;;;;;5034956;28;99240;-75
2023/06/22 00:42:40;;;;;;;15.25;7.00;;;;;;;;;;5031731;28;99602;-75
2023/06/22 00:45:07;;;;;;;10.07;6.35;;;;;;;;;;5031751;28;98516;-75
2023/06/22 00:47:35;;;;;;;11.15;6.18;;;;;;;;;;5031893;28;99277;-76
2023/06/22 00:50:03;;;;;;;10.32;6.20;;;;;;;;;;5031780;28;99586;-75
2023/06/22 00:52:32;;;;;;;8.65;5.68;;;;;;;;;;5031841;27;98652;-75
2023/06/22 00:55:02;;;;;;;8.88;6.55;;;;;;;;;;5031601;28;99102;-75
2023/06/22 00:57:29;;;;;;;13.40;7.10;;;;;;;;;;5032076;28;98789;-75
2023/06/22 00:59:55;;;;;;;7.65;6.85;;;;;;;;;;5032040;27;98463;-76
2023/06/22 01:02:21;;;;;;;12.32;6.70;;;;;;;;;;5016767;28;99403;-75
2023/06/22 01:04:48;;;;;;;8.80;6.18;;;;;;;;;;5031156;27;99250;-75
2023/06/22 01:07:22;;;;;;;8.40;5.97;;;;;;;;;;5031765;28;100218;-75
2023/06/22 01:09:57;;;;;;;9.55;6.18;;;;;;;;;;5031589;28;100775;-75
2023/06/22 01:12:25;;;;;;;8.13;6.05;;;;;;;;;;5031722;28;98552;-75
2023/06/22 01:15:01;;;;;;;8.05;6.05;;;;;;;;;;5031742;28;99510;-75
2023/06/22 01:17:28;;;;;;;7.85;6.15;;;;;;;;;;5031435;28;99735;-75
2023/06/22 01:19:55;;;;;;;9.23;6.38;;;;;;;;;;5031118;27;98583;-75
2023/06/22 01:22:30;;;;;;;8.10;6.00;;;;;;;;;;5032120;28;99162;-75
2023/06/22 01:25:08;;;;;;;9.00;5.80;;;;;;;;;;5034777;28;99397;-75
2023/06/22 01:27:41;;;;;;;8.70;6.38;;;;;;;;;;5009971;28;99905;-75
2023/06/22 01:30:10;;;;;;;7.40;5.82;;;;;;;;;;5008983;28;100338;-75
2023/06/22 01:32:38;;;;;;;9.18;6.43;;;;;;;;;;5010064;28;98554;-75
2023/06/22 01:35:06;;;;;;;9.30;6.10;;;;;;;;;;5011177;28;98995;-75
2023/06/22 01:37:34;;;;;;;8.00;5.90;;;;;;;;;;5011049;28;99847;-75
2023/06/22 01:40:00;;;;;;;7.20;6.45;;;;;;;;;;5011071;28;98696;-75
2023/06/22 01:42:27;;;;;;;7.93;6.07;;;;;;;;;;5011238;28;99318;-75
2023/06/22 01:44:53;;;;;;;9.07;6.47;;;;;;;;;;5009593;28;99542;-75
2023/06/22 01:47:21;;;;;;;9.75;5.70;;;;;;;;;;5014977;28;97812;-75
2023/06/22 01:49:48;;;;;;;8.00;5.68;;;;;;;;;;5010619;28;99461;-75
2023/06/22 01:52:15;;;;;;;9.52;5.50;;;;;;;;;;5011098;28;98956;-75
2023/06/22 01:54:41;;;;;;;6.50;5.68;;;;;;;;;;5009805;28;100340;-75
2023/06/22 01:57:09;;;;;;;9.85;6.22;;;;;;;;;;5010630;28;100013;-75
2023/06/22 01:59:39;;;;;;;9.98;6.45;;;;;;;;;;5010617;28;99619;-75
2023/06/22 02:02:09;;;;;;;7.13;5.50;;;;;;;;;;5010912;28;99188;-75
2023/06/22 02:04:38;;;;;;;6.95;5.78;;;;;;;;;;5010765;28;99524;-75
2023/06/22 02:07:05;;;;;;;7.25;5.85;;;;;;;;;;5010913;28;98458;-75
2023/06/22 02:09:34;;;;;;;9.48;6.10;;;;;;;;;;5013851;28;99142;-75
2023/06/22 02:12:02;;;;;;;9.50;6.80;;;;;;;;;;5010831;28;98248;-75
2023/06/22 02:14:28;;;;;;;8.57;5.93;;;;;;;;;;5010903;28;98483;-75
2023/06/22 02:16:58;;;;;;;7.03;5.68;;;;;;;;;;5010542;28;99422;-75
2023/06/22 02:19:26;;;;;;;6.97;6.13;;;;;;;;;;5009297;28;100136;-75
2023/06/22 02:21:52;;;;;;;7.65;6.05;;;;;;;;;;5010603;28;100096;-75
2023/06/22 02:24:19;;;;;;;8.48;6.18;;;;;;;;;;5010394;28;100952;-75
2023/06/22 02:26:45;;;;;;;9.65;6.32;;;;;;;;;;5010745;28;98943;-74
2023/06/22 02:29:12;;;;;;;9.20;6.90;;;;;;;;;;5029672;28;101693;-75
2023/06/22 02:31:38;;;;;;;7.68;5.78;;;;;;;;;;5033452;28;99533;-75
2023/06/22 02:34:04;;;;;;;8.23;5.68;;;;;;;;;;5030406;28;99142;-75
2023/06/22 02:36:33;;;;;;;6.93;5.50;;;;;;;;;;5031002;28;99752;-75
2023/06/22 02:39:01;;;;;;;7.20;5.63;;;;;;;;;;5030030;28;98893;-75
2023/06/22 02:41:28;;;;;;;10.20;6.03;;;;;;;;;;5030140;27;99107;-75
2023/06/22 02:43:54;;;;;;;8.68;5.97;;;;;;;;;;5029380;28;100444;-75
2023/06/22 02:46:21;;;;;;;9.77;5.57;;;;;;;;;;5029906;27;98612;-75
2023/06/22 02:48:47;;;;;;;6.45;5.80;;;;;;;;;;5030450;28;99325;-75
2023/06/22 02:51:14;;;;;;;12.40;6.13;;;;;;;;;;5033041;28;99512;-75
2023/06/22 02:53:44;;;;;;;9.35;6.00;;;;;;;;;;5012532;28;100267;-75
2023/06/22 02:56:10;;;;;;;15.13;6.07;;;;;;;;;;5028242;28;99623;-75
2023/06/22 02:58:39;;;;;;;8.63;6.20;;;;;;;;;;5030588;28;98496;-75
2023/06/22 03:01:06;;;;;;;7.00;5.80;;;;;;;;;;5030714;28;99470;-75
2023/06/22 03:03:32;;;;;;;8.80;6.43;;;;;;;;;;5029589;28;99593;-75
2023/06/22 03:06:01;;;;;;;8.80;6.57;;;;;;;;;;5030083;28;98531;-75
2023/06/22 03:08:28;;;;;;;9.80;6.15;;;;;;;;;;5029525;28;99334;-75
2023/06/22 03:10:55;;;;;;;10.95;6.20;;;;;;;;;;5029833;27;100766;-75
2023/06/22 03:13:21;;;;;;;9.60;5.38;;;;;;;;;;5033101;28;98593;-75
2023/06/22 03:15:48;;;;;;;7.45;5.43;;;;;;;;;;5029546;28;99107;-75
2023/06/22 03:18:15;;;;;;;7.47;5.70;;;;;;;;;;5029537;28;98484;-75
2023/06/22 03:20:41;;;;;;;7.38;5.85;;;;;;;;;;5029612;28;99185;-75
2023/06/22 03:23:08;;;;;;;8.63;5.65;;;;;;;;;;5029303;27;99531;-75
2023/06/22 03:25:34;;;;;;;9.77;6.22;;;;;;;;;;5012512;28;98035;-75
2023/06/22 03:28:01;;;;;;;8.88;5.55;;;;;;;;;;5029520;28;98581;-75
2023/06/22 03:30:27;;;;;;;8.52;5.70;;;;;;;;;;5029451;28;99529;-75
2023/06/22 03:32:54;;;;;;;8.60;6.00;;;;;;;;;;5011108;28;99316;-75
2023/06/22 03:35:21;;;;;;;8.20;5.57;;;;;;;;;;5032578;27;101412;-75
2023/06/22 03:37:47;;;;;;;9.98;5.95;;;;;;;;;;5029220;28;98613;-75
2023/06/22 03:40:14;;;;;;;7.57;6.15;;;;;;;;;;5029418;28;99652;-75
2023/06/22 03:42:40;;;;;;;7.50;4.90;;;;;;;;;;5011634;28;100497;-75
2023/06/22 03:45:07;;;;;;;6.85;5.22;;;;;;;;;;5029289;28;98664;-75
2023/06/22 03:47:33;;;;;;;6.90;5.60;;;;;;;;;;5029636;28;100250;-75
2023/06/22 03:50:00;;;;;;;10.85;5.53;;;;;;;;;;5029001;28;98841;-75
2023/06/22 03:52:26;;;;;;;8.32;4.65;;;;;;;;;;5029202;28;98572;-75
2023/06/22 03:54:53;;;;;;;9.27;5.50;;;;;;;;;;5029283;28;99134;-75
2023/06/22 03:57:19;;;;;;;7.78;6.18;;;;;;;;;;5031431;28;100374;-75
2023/06/22 03:59:45;;;;;;;11.13;6.40;;;;;;;;;;5029695;28;100945;-75
2023/06/22 04:02:12;;;;;;;8.90;6.18;;;;;;;;;;5028689;28;99575;-75
2023/06/22 04:04:39;;;;;;;8.55;6.45;;;;;;;;;;5028941;28;98533;-74
2023/06/22 04:07:05;;;;;;;10.35;6.43;;;;;;;;;;5028732;27;99256;-75
2023/06/22 04:09:32;;;;;;;13.88;6.60;;;;;;;;;;5032157;28;99952;-75
2023/06/22 04:11:58;;;;;;;12.10;6.57;;;;;;;;;;5032543;28;98523;-75
2023/06/22 04:14:24;;;;;;;8.65;6.05;;;;;;;;;;5032505;27;99554;-75
2023/06/22 04:16:51;;;;;;;11.75;6.53;;;;;;;;;;5031986;27;99419;-75
2023/06/22 04:19:17;;;;;;;9.13;7.13;;;;;;;;;;5035761;27;98604;-75
2023/06/22 04:21:44;;;;;;;8.57;6.85;;;;;;;;;;5031217;27;100316;-75
2023/06/22 04:24:11;;;;;;;9.18;7.28;;;;;;;;;;5032586;28;98530;-75
2023/06/22 04:26:38;;;;;;;8.60;6.35;;;;;;;;;;5032368;28;99217;-75
2023/06/22 04:29:05;;;;;;;14.02;6.60;;;;;;;;;;5031383;28;99962;-75
2023/06/22 04:31:36;;;;;;;11.45;7.32;;;;;;;;;;5031942;27;98540;-75
2023/06/22 04:34:06;;;;;;;10.70;7.20;;;;;;;;;;5032037;28;99447;-74
2023/06/22 04:36:37;;;;;;;14.55;8.07;;;;;;;;;;5031757;28;99716;-75
2023/06/22 04:39:04;;;;;;;14.95;8.27;;;;;;;;;;5032547;28;97788;-75
2023/06/22 04:41:41;;;;;;;13.50;8.52;;;;;;;;;;5035095;27;98666;-74
2023/06/22 04:44:23;;;;;;;14.48;9.32;;;;;;;;;;5013689;28;98538;-75
2023/06/22 04:46:53;;;;;;;12.25;9.95;;;;;;;;;;5031919;28;100475;-75
2023/06/22 04:49:20;;;;;;;12.82;10.00;;;;;;;;;;5031731;28;99612;-75
2023/06/22 04:51:47;;;;;;;15.10;10.60;;;;;;;;;;5013535;28;98576;-75
2023/06/22 04:54:14;;;;;;;13.73;10.55;;;;;;;;;;5031120;28;99428;-75
2023/06/22 04:56:40;;;;;;;14.32;10.75;;;;;;;;;;5030050;28;99936;-75
2023/06/22 04:59:07;;;;;;;16.50;11.73;;;;;;;;;;5030873;28;98545;-75
2023/06/22 05:01:34;;;;;;;18.38;11.60;;;;;;;;;;5034077;28;99279;-75
2023/06/22 05:04:02;;;;;;;17.35;11.80;;;;;;;;;;5011269;28;97782;-75
2023/06/22 05:06:29;;;;;;;26.35;12.40;;;;;;;;;;5010706;28;99194;-75
2023/06/22 05:08:59;;;;;;;17.65;12.45;;;;;;;;;;5011084;28;102282;-75
2023/06/22 05:11:26;;;;;;;16.67;12.18;;;;;;;;;;5009992;28;99248;-74
2023/06/22 05:13:53;;;;;;;26.70;12.93;;;;;;;;;;5010452;28;100627;-75
2023/06/22 05:16:23;;;;;;;18.77;12.73;;;;;;;;;;5013336;28;99882;-75
2023/06/22 05:18:53;;;;;;;18.13;13.65;;;;;;;;;;5030050;28;98575;-74
2023/06/22 05:21:21;;;;;;;25.92;13.88;;;;;;;;;;5030260;27;99173;-75
2023/06/22 05:23:48;;;;;;;18.45;14.27;;;;;;;;;;5033262;27;99591;-75
2023/06/22 05:26:14;;;;;;;23.08;14.45;;;;;;;;;;5012898;28;98619;-75
2023/06/22 05:28:41;;;;;;;25.30;16.23;;;;;;;;;;5030805;27;100373;-75
2023/06/22 05:31:07;;;;;;;27.58;16.02;;;;;;;;;;5030425;28;98553;-75
2023/06/22 05:33:33;;;;;;;21.70;15.57;;;;;;;;;;5030393;27;99675;-75
2023/06/22 05:36:00;;;;;;;26.02;17.20;;;;;;;;;;5029793;28;100347;-75
2023/06/22 05:38:26;;;;;;;25.23;18.05;;;;;;;;;;5012257;27;98555;-75
2023/06/22 05:40:52;;;;;;;28.20;19.08;;;;;;;;;;5012489;28;99298;-76
2023/06/22 05:43:19;;;;;;;27.95;18.70;;;;;;;;;;5030447;28;99432;-75
2023/06/22 05:45:45;;;;;;;44.88;22.17;;;;;;;;;;5033347;28;98492;-75
2023/06/22 05:48:12;;;;;;;33.78;20.98;;;;;;;;;;5029892;28;99648;-75
2023/06/22 05:50:38;;;;;;;31.98;21.27;;;;;;;;;;5028554;28;98518;-75
2023/06/22 05:53:06;;;;;;;33.13;22.90;;;;;;;;;;5031027;27;99093;-75
2023/06/22 05:55:32;;;;;;;34.60;22.20;;;;;;;;;;5011658;28;98828;-75
2023/06/22 05:58:01;;;;;;;37.40;24.10;;;;;;;;;;5030518;27;98465;-75
2023/06/22 06:00:27;;;;;;;33.00;23.30;;;;;;;;;;5011682;28;99601;-75
2023/06/22 06:02:54;;;;;;;42.95;25.50;;;;;;;;;;5029925;28;99583;-76
2023/06/22 06:05:22;;;;;;;35.72;24.75;;;;;;;;;;5029914;28;98550;-75
2023/06/22 06:07:49;;;;;;;33.90;23.23;;;;;;;;;;5032851;27;99288;-76
2023/06/22 06:10:15;;;;;;;36.50;24.60;;;;;;;;;;5029795;27;98563;-76
2023/06/22 06:12:42;;;;;;;47.00;25.92;;;;;;;;;;5029845;28;99336;-74
2023/06/22 06:15:08;;;;;;;35.53;25.23;;;;;;;;;;5012186;28;99328;-73
2023/06/22 06:17:44;;;;;;;42.78;24.30;;;;;;;;;;5030169;28;98044;-73
2023/06/22 06:20:12;;;;;;;35.92;24.27;;;;;;;;;;5029868;28;98756;-73
2023/06/22 06:22:38;;;;;;;36.33;25.17;;;;;;;;;;5029398;28;99380;-73
2023/06/22 06:25:04;;;;;;;39.85;24.20;;;;;;;;;;5028887;28;99292;-73
2023/06/22 06:27:31;;;;;;;39.13;25.00;;;;;;;;;;5029396;28;100130;-73
2023/06/22 06:29:57;;;;;;;35.10;24.38;;;;;;;;;;5032965;28;100638;-73
2023/06/22 06:32:24;;;;;;;37.03;24.85;;;;;;;;;;5029010;28;99899;-74
2023/06/22 06:34:50;;;;;;;40.13;26.08;;;;;;;;;;5029283;28;100420;-73
2023/06/22 06:37:17;;;;;;;36.35;25.85;;;;;;;;;;5029368;28;98622;-74
2023/06/22 06:39:43;;;;;;;38.25;24.77;;;;;;;;;;5029177;28;99277;-73
2023/06/22 06:42:11;;;;;;;37.28;22.42;;;;;;;;;;5029592;27;98817;-74
2023/06/22 06:44:37;;;;;;;35.08;24.05;;;;;;;;;;5028838;28;98565;-73
2023/06/22 06:47:04;;;;;;;38.03;25.15;;;;;;;;;;5029748;28;99697;-74
2023/06/22 06:49:30;;;;;;;41.20;24.90;;;;;;;;;;5028133;27;100514;-74
2023/06/22 06:51:57;;;;;;;38.85;24.13;;;;;;;;;;5032680;28;98739;-74
2023/06/22 06:54:23;;;;;;;37.03;24.95;;;;;;;;;;5028442;28;99459;-74
2023/06/22 06:56:50;;;;;;;29.80;20.10;;;;;;;;;;5029039;28;98531;-74
2023/06/22 06:59:16;;;;;;;38.38;22.77;;;;;;;;;;5029018;27;99169;-74
2023/06/22 07:01:44;;;;;;;35.08;22.90;;;;;;;;;;5011108;28;100043;-74
2023/06/22 07:04:11;;;;;;;36.92;23.17;;;;;;;;;;5029056;28;98796;-73
2023/06/22 07:06:37;;;;;;;32.60;23.38;;;;;;;;;;5029605;28;99166;-73
2023/06/22 07:09:04;;;;;;;29.02;21.10;;;;;;;;;;5029122;28;99486;-73
2023/06/22 07:11:30;;;;;;;35.95;22.17;;;;;;;;;;5032511;27;98546;-73
2023/06/22 07:13:56;;;;;;;29.65;20.52;;;;;;;;;;5027856;27;100456;-73
2023/06/22 07:16:25;;;;;;;27.35;19.60;;;;;;;;;;5029333;27;98577;-74
2023/06/22 07:18:51;;;;;;;28.95;18.98;;;;;;;;;;5028667;27;99330;-73
2023/06/22 07:21:17;;;;;;;29.42;20.15;;;;;;;;;;5028559;27;99432;-73
2023/06/22 07:23:44;;;;;;;27.15;18.42;;;;;;;;;;5029101;28;98478;-72
2023/06/22 07:26:12;;;;;;;25.25;17.52;;;;;;;;;;5029120;27;100301;-73
2023/06/22 07:28:40;;;;;;;25.83;16.70;;;;;;;;;;5027671;28;99620;-73
2023/06/22 07:31:06;;;;;;;30.40;18.67;;;;;;;;;;5029355;28;97920;-73
2023/06/22 07:33:33;;;;;;;21.30;15.73;;;;;;;;;;5031688;28;98810;-73
2023/06/22 07:36:02;;;;;;;23.58;16.33;;;;;;;;;;5029666;28;98525;-73
2023/06/22 07:38:28;;;;;;;23.08;17.05;;;;;;;;;;5028784;28;100358;-73
2023/06/22 07:40:55;;;;;;;25.90;17.42;;;;;;;;;;5028569;27;100545;-73
2023/06/22 07:43:21;;;;;;;29.75;18.42;;;;;;;;;;5030423;27;98534;-73
2023/06/22 07:45:52;;;;;;;34.65;18.73;;;;;;;;;;5032124;28;99241;-73
2023/06/22 07:48:22;;;;;;;26.42;17.20;;;;;;;;;;5032256;28;101644;-73
2023/06/22 07:50:48;;;;;;;29.67;17.48;;;;;;;;;;5031814;27;98857;-73
2023/06/22 07:53:15;;;;;;;19.00;15.15;;;;;;;;;;5032017;27;99866;-73
2023/06/22 07:55:41;;;;;;;22.30;15.23;;;;;;;;;;5035344;28;98714;-75
2023/06/22 07:58:07;;;;;;;20.30;14.25;;;;;;;;;;5032438;28;99987;-73
2023/06/22 08:00:34;;;;;;;22.88;15.13;;;;;;;;;;5031450;28;99825;-73
2023/06/22 08:03:03;;;;;;;20.75;15.80;;;;;;;;;;5031154;28;99183;-73
2023/06/22 08:05:30;;;;;;;22.17;14.27;;;;;;;;;;5013816;28;100054;-73
2023/06/22 08:07:56;;;;;;;23.35;15.00;;;;;;;;;;5031951;27;100692;-73
2023/06/22 08:10:23;;;;;;;19.35;13.75;;;;;;;;;;5031338;28;98875;-73
2023/06/22 08:12:49;;;;;;;20.80;13.23;;;;;;;;;;5031791;28;98452;-73
2023/06/22 08:15:15;;;;;;;20.23;13.75;;;;;;;;;;5030837;28;99569;-73
2023/06/22 08:17:42;;;;;;;18.02;12.60;;;;;;;;;;5035019;28;98623;-73
2023/06/22 08:20:09;;;;;;;29.42;12.75;;;;;;;;;;5032129;28;98687;-73
2023/06/22 08:22:36;;;;;;;16.63;12.20;;;;;;;;;;5031634;28;98955;-73
2023/06/22 08:25:03;;;;;;;15.95;11.25;;;;;;;;;;5031739;28;100231;-73
2023/06/22 08:27:31;;;;;;;18.63;11.55;;;;;;;;;;5030495;28;100535;-73
2023/06/22 08:29:58;;;;;;;16.50;12.25;;;;;;;;;;5031492;27;98582;-73
2023/06/22 08:32:26;;;;;;;15.27;11.30;;;;;;;;;;5031619;28;99377;-73
2023/06/22 08:34:56;;;;;;;13.73;10.82;;;;;;;;;;5030839;28;99496;-73
2023/06/22 08:37:30;;;;;;;13.57;10.68;;;;;;;;;;5031649;28;98483;-73
2023/06/22 08:39:58;;;;;;;25.98;11.70;;;;;;;;;;5034218;28;99375;-73
2023/06/22 08:42:25;;;;;;;15.05;9.65;;;;;;;;;;5031544;28;98463;-73
2023/06/22 08:44:51;;;;;;;19.33;10.65;;;;;;;;;;5032324;28;99233;-74
2023/06/22 08:47:18;;;;;;;14.75;9.02;;;;;;;;;;5030865;28;99428;-73
2023/06/22 08:49:44;;;;;;;14.45;9.50;;;;;;;;;;5031896;28;98538;-73
2023/06/22 08:52:11;;;;;;;13.52;8.55;;;;;;;;;;5031328;28;99291;-74
2023/06/22 08:54:37;;;;;;;14.77;9.18;;;;;;;;;;5029708;27;99495;-73
2023/06/22 08:57:04;;;;;;;14.00;8.95;;;;;;;;;;5031946;28;98516;-73
2023/06/22 08:59:30;;;;;;;16.77;8.57;;;;;;;;;;5034603;28;99400;-73
2023/06/22 09:01:56;;;;;;;13.35;9.23;;;;;;;;;;5031671;28;98617;-73
2023/06/22 09:04:24;;;;;;;14.45;8.52;;;;;;;;;;5031787;28;100532;-73
2023/06/22 09:06:52;;;;;;;13.35;8.75;;;;;;;;;;5031885;27;102798;-74
2023/06/22 09:09:18;;;;;;;12.38;8.45;;;;;;;;;;5032101;27;97799;-74
2023/06/22 09:11:45;;;;;;;13.85;7.65;;;;;;;;;;5031897;27;99658;-73
2023/06/22 09:14:11;;;;;;;13.05;8.27;;;;;;;;;;5030816;28;99630;-74
2023/06/22 09:16:37;;;;;;;12.70;8.27;;;;;;;;;;5030992;27;99323;-73
2023/06/22 09:19:04;;;;;;;9.57;7.57;;;;;;;;;;5031009;27;100413;-74
2023/06/22 09:21:30;;;;;;;9.70;6.78;;;;;;;;;;5034251;27;99510;-74
2023/06/22 09:23:59;;;;;;;10.70;6.43;;;;;;;;;;5031767;28;100315;-74
2023/06/22 09:26:26;;;;;;;8.02;5.68;;;;;;;;;;5030907;28;99661;-74
2023/06/22 09:28:52;;;;;;;9.05;6.47;;;;;;;;;;5030724;27;98931;-73
2023/06/22 09:31:25;;;;;;;12.23;6.82;;;;;;;;;;5031235;28;99314;-73
2023/06/22 09:33:54;;;;;;;10.05;6.57;;;;;;;;;;5031183;27;99174;-74
2023/06/22 09:36:21;;;;;;;8.43;5.05;;;;;;;;;;5031437;28;98961;-73
2023/06/22 09:38:48;;;;;;;12.02;6.88;;;;;;;;;;5031112;28;99351;-74
2023/06/22 09:41:14;;;;;;;11.50;7.07;;;;;;;;;;5030145;28;100412;-74
2023/06/22 09:43:40;;;;;;;12.85;6.78;;;;;;;;;;5034560;28;98899;-74
2023/06/22 09:46:07;;;;;;;9.32;6.20;;;;;;;;;;5030330;27;100089;-74
2023/06/22 09:48:33;;;;;;;12.63;5.90;;;;;;;;;;5031156;28;98893;-74
2023/06/22 09:50:59;;;;;;;8.68;6.43;;;;;;;;;;5031436;28;99125;-74
2023/06/22 09:53:26;;;;;;;9.10;5.85;;;;;;;;;;5030940;27;100728;-74
2023/06/22 09:55:52;;;;;;;12.32;6.00;;;;;;;;;;5030626;28;98486;-73
2023/06/22 09:58:19;;;;;;;15.60;5.90;;;;;;;;;;5031419;27;99399;-73
2023/06/22 10:00:45;;;;;;;10.82;5.88;;;;;;;;;;5029832;28;99476;-73
2023/06/22 10:03:11;;;;;;;8.48;6.18;;;;;;;;;;5030981;27;98747;-74
2023/06/22 10:05:38;;;;;;;10.63;5.95;;;;;;;;;;5033192;28;99492;-73
2023/06/22 10:08:05;;;;;;;11.70;6.47;;;;;;;;;;5031076;28;98567;-73
2023/06/22 10:10:31;;;;;;;11.48;6.07;;;;;;;;;;5030515;27;99270;-73
2023/06/22 10:13:02;;;;;;;13.85;6.70;;;;;;;;;;5030325;28;99474;-74
2023/06/22 10:15:28;;;;;;;9.20;6.03;;;;;;;;;;5030939;28;98893;-74
2023/06/22 10:17:55;;;;;;;9.40;6.00;;;;;;;;;;5030398;28;99776;-74
2023/06/22 10:20:22;;;;;;;15.13;6.93;;;;;;;;;;5030272;28;99929;-74
2023/06/22 10:22:48;;;;;;;11.73;6.05;;;;;;;;;;5030778;27;98104;-73
2023/06/22 10:25:15;;;;;;;8.98;5.43;;;;;;;;;;5030395;28;99025;-73
2023/06/22 10:27:41;;;;;;;10.38;5.88;;;;;;;;;;5032759;27;99583;-73
2023/06/22 10:30:09;;;;;;;16.67;5.78;;;;;;;;;;5029756;28;99625;-73
2023/06/22 10:32:36;;;;;;;11.93;5.30;;;;;;;;;;5029917;28;99384;-74
2023/06/22 10:35:03;;;;;;;8.93;4.85;;;;;;;;;;5030064;28;98869;-74
2023/06/22 10:37:29;;;;;;;10.52;5.18;;;;;;;;;;5030569;27;100541;-73
2023/06/22 10:39:56;;;;;;;8.55;5.07;;;;;;;;;;5030301;28;100037;-73
2023/06/22 10:42:22;;;;;;;13.00;5.05;;;;;;;;;;5030213;27;98557;-74
2023/06/22 10:44:48;;;;;;;12.80;4.93;;;;;;;;;;5029924;27;99313;-74
2023/06/22 10:47:15;;;;;;;15.82;5.40;;;;;;;;;;5029753;28;98750;-74
2023/06/22 10:49:41;;;;;;;5.82;5.07;;;;;;;;;;5033554;27;98532;-74
2023/06/22 10:52:08;;;;;;;11.02;5.10;;;;;;;;;;5030316;28;103015;-74
2023/06/22 10:54:35;;;;;;;8.20;5.10;;;;;;;;;;5029445;28;99249;-74
2023/06/22 10:57:01;;;;;;;7.90;5.45;;;;;;;;;;5029928;28;99989;-74
2023/06/22 10:59:28;;;;;;;7.28;5.45;;;;;;;;;;5029874;28;100569;-74
2023/06/22 11:01:55;;;;;;;9.02;5.13;;;;;;;;;;5029695;28;98707;-74
2023/06/22 11:04:22;;;;;;;12.18;6.15;;;;;;;;;;5030001;28;99123;-74
2023/06/22 11:06:48;;;;;;;11.68;5.30;;;;;;;;;;5011922;28;99826;-74
2023/06/22 11:09:20;;;;;;;13.43;5.05;;;;;;;;;;5033086;28;98546;-73
2023/06/22 11:11:55;;;;;;;9.82;5.18;;;;;;;;;;5030277;28;98813;-74
2023/06/22 11:14:22;;;;;;;10.32;4.75;;;;;;;;;;5029776;28;98501;-74
2023/06/22 11:16:48;;;;;;;11.23;5.07;;;;;;;;;;5029378;27;99590;-74
2023/06/22 11:19:15;;;;;;;7.93;5.60;;;;;;;;;;5031831;28;99949;-73
2023/06/22 11:21:41;;;;;;;6.40;5.00;;;;;;;;;;5032854;28;98497;-74
2023/06/22 11:24:08;;;;;;;16.75;5.97;;;;;;;;;;5033252;27;99246;-74
2023/06/22 11:26:35;;;;;;;10.40;6.18;;;;;;;;;;5033104;28;100888;-74
2023/06/22 11:29:04;;;;;;;13.27;6.22;;;;;;;;;;5033713;28;98513;-74
2023/06/22 11:31:31;;;;;;;;;;;;;;;;;;5036947;27;100322;-73
2023/06/22 11:33:57;;;;;;;7.40;6.43;;;;;;;;;;5034117;28;119350;-74
2023/06/22 11:36:24;;;;;;;9.23;6.20;;;;;;;;;;5015711;28;99493;-74
2023/06/22 11:38:51;;;;;;;12.63;6.70;;;;;;;;;;5032886;27;99555;-73
2023/06/22 11:41:17;;;;;;;11.25;7.07;;;;;;;;;;5033092;27;98517;-73
2023/06/22 11:43:44;;;;;;;8.45;6.22;;;;;;;;;;5032412;27;99245;-74
2023/06/22 11:46:10;;;;;;;10.57;5.97;;;;;;;;;;5032618;28;99507;-74
2023/06/22 11:48:37;;;;;;;12.60;6.22;;;;;;;;;;5015369;28;98842;-74
2023/06/22 11:51:06;;;;;;;12.50;6.53;;;;;;;;;;5033133;28;100204;-74
2023/06/22 11:53:32;;;;;;;10.68;6.82;;;;;;;;;;5036126;28;100892;-74
2023/06/22 11:55:59;;;;;;;14.55;6.63;;;;;;;;;;5032492;28;99303;-73
2023/06/22 11:58:26;;;;;;;8.40;6.05;;;;;;;;;;5031894;28;99596;-73
2023/06/22 12:00:52;;;;;;;11.43;6.18;;;;;;;;;;5033157;28;98038;-74
2023/06/22 12:03:21;;;;;;;12.95;6.55;;;;;;;;;;5032490;28;98478;-74
2023/06/22 12:05:49;;;;;;;8.45;6.65;;;;;;;;;;5032608;28;100510;-74
2023/06/22 12:08:15;;;;;;;10.73;5.95;;;;;;;;;;5032224;27;99708;-74
2023/06/22 12:10:42;;;;;;;16.15;7.00;;;;;;;;;;5032434;28;100025;-74
2023/06/22 12:13:09;;;;;;;10.82;6.43;;;;;;;;;;5031862;27;99587;-74
2023/06/22 12:15:35;;;;;;;27.02;7.32;;;;;;;;;;5035663;28;98492;-73
2023/06/22 12:18:02;;;;;;;11.55;7.18;;;;;;;;;;5032353;28;100671;-73
2023/06/22 12:20:29;;;;;;;14.50;7.45;;;;;;;;;;5032279;28;98662;-73
2023/06/22 12:22:58;;;;;;;19.52;7.63;;;;;;;;;;5032542;28;100123;-73
2023/06/22 12:25:24;;;;;;;14.73;8.23;;;;;;;;;;5031947;28;98760;-74
2023/06/22 12:27:51;;;;;;;14.35;8.80;;;;;;;;;;5032503;27;98792;-74
2023/06/22 12:30:17;;;;;;;27.98;9.57;;;;;;;;;;5031798;27;99397;-73
2023/06/22 12:32:44;;;;;;;21.02;9.07;;;;;;;;;;5030966;28;100760;-73
2023/06/22 12:35:13;;;;;;;26.45;9.25;;;;;;;;;;5032106;27;98564;-74
2023/06/22 12:37:40;;;;;;;;;;;;;;;;;;5035248;27;100665;-74
2023/06/22 12:40:07;;;;;;;18.05;10.15;;;;;;;;;;5033048;28;118400;-74
2023/06/22 12:42:33;;;;;;;17.63;10.90;;;;;;;;;;5031769;28;102349;-74
2023/06/22 12:44:59;;;;;;;18.15;10.55;;;;;;;;;;5013077;28;99769;-72
2023/06/22 12:47:26;;;;;;;22.88;11.15;;;;;;;;;;5031039;28;98572;-73
2023/06/22 12:49:52;;;;;;;19.80;10.68;;;;;;;;;;5031693;27;99212;-74
2023/06/22 12:52:19;;;;;;;18.17;11.30;;;;;;;;;;5030679;28;99584;-74
2023/06/22 12:54:48;;;;;;;12.77;10.90;;;;;;;;;;5030979;28;98475;-74
2023/06/22 12:57:21;;;;;;;18.17;10.77;;;;;;;;;;5030425;28;99857;-74
2023/06/22 12:59:47;;;;;;;15.98;10.48;;;;;;;;;;5033822;28;99608;-74
2023/06/22 13:02:13;;;;;;;15.48;10.88;;;;;;;;;;5030849;27;99204;-74
2023/06/22 13:04:40;;;;;;;19.05;12.10;;;;;;;;;;5030843;28;100520;-74
2023/06/22 13:07:06;;;;;;;17.33;12.05;;;;;;;;;;5031347;27;98535;-73
2023/06/22 13:09:51;;;;;;;20.33;12.73;;;;;;;;;;5030871;28;98475;-73
2023/06/22 13:12:18;;;;;;;;;;;;;;;;;;5030850;28;99435;-73
2023/06/22 13:14:46;;;;;;;16.05;11.90;;;;;;;;;;5032774;27;120480;-73
2023/06/22 13:17:13;;;;;;;20.85;12.88;;;;;;;;;;5030830;27;98808;-74
2023/06/22 13:19:40;;;;;;;19.20;13.27;;;;;;;;;;5033480;28;99670;-73
2023/06/22 13:22:26;;;;;;;17.33;11.95;;;;;;;;;;5012454;28;99294;-73
2023/06/22 13:24:52;;;;;;;20.73;11.27;;;;;;;;;;5030154;28;99565;-73
2023/06/22 13:27:21;;;;;;;18.08;13.27;;;;;;;;;;5030327;28;98881;-73
2023/06/22 13:29:47;;;;;;;24.33;14.30;;;;;;;;;;5031177;28;101900;-73
2023/06/22 13:32:14;;;;;;;27.05;12.98;;;;;;;;;;5030206;28;99706;-72
2023/06/22 13:34:40;;;;;;;26.77;14.07;;;;;;;;;;5030686;28;98501;-73
2023/06/22 13:37:06;;;;;;;23.73;15.40;;;;;;;;;;5030681;28;99076;-73
2023/06/22 13:39:33;;;;;;;23.40;14.85;;;;;;;;;;5030359;27;98958;-72
2023/06/22 13:41:59;;;;;;;19.73;13.98;;;;;;;;;;5033181;28;98488;-73
2023/06/22 13:44:28;;;;;;;19.35;13.55;;;;;;;;;;5029350;28;99538;-72
2023/06/22 13:46:55;;;;;;;17.90;14.70;;;;;;;;;;5030144;27;99274;-72
2023/06/22 13:49:21;;;;;;;18.13;13.80;;;;;;;;;;5030192;28;100145;-72
2023/06/22 13:51:48;;;;;;;20.58;15.48;;;;;;;;;;5029788;27;100132;-72
2023/06/22 13:54:14;;;;;;;21.73;15.70;;;;;;;;;;5029834;28;98533;-72
2023/06/22 13:56:55;;;;;;;22.95;16.13;;;;;;;;;;5030403;28;100412;-73
2023/06/22 13:59:22;;;;;;;25.52;16.48;;;;;;;;;;5029835;28;99539;-72
2023/06/22 14:01:48;;;;;;;25.75;16.40;;;;;;;;;;5030072;28;98584;-72
2023/06/22 14:04:15;;;;;;;23.98;16.45;;;;;;;;;;5033250;27;99334;-72
2023/06/22 14:06:41;;;;;;;28.80;15.70;;;;;;;;;;5029842;28;98560;-72
2023/06/22 14:09:07;;;;;;;20.67;15.15;;;;;;;;;;5029993;28;99297;-72
2023/06/22 14:11:34;;;;;;;23.42;15.88;;;;;;;;;;5028850;28;100452;-72
2023/06/22 14:14:00;;;;;;;24.20;15.27;;;;;;;;;;5030119;28;98606;-72
2023/06/22 14:16:27;;;;;;;21.88;14.65;;;;;;;;;;5029556;28;99239;-73
2023/06/22 14:18:53;;;;;;;21.35;14.65;;;;;;;;;;5029424;27;99615;-72
2023/06/22 14:21:23;;;;;;;17.95;13.57;;;;;;;;;;5029575;28;98895;-72
2023/06/22 14:23:49;;;;;;;21.30;13.13;;;;;;;;;;5011837;28;99347;-73
2023/06/22 14:26:18;;;;;;;18.63;13.32;;;;;;;;;;5032670;28;99488;-72
2023/06/22 14:28:47;;;;;;;20.48;13.68;;;;;;;;;;5029738;28;99934;-73